Flight Track Log - Related Links

Times and Time Zones

All times are in EDT time to prevent confusion due to time zone crossing. See the N7VR flight status page for this flight to view local times or setup timezone preferences in your user account.

Time Position Orientation Groundspeed Altitude Reporting Facility
EDT Latitude Longitude Course Direction KTS MPH feet Rate Location/Type
Tue 11:43:59 AM 42.3083 -85.5031 137° Southeast 177 204 3,800  Level Chicago Center
Tue 11:45:01 AM 42.2714 -85.4561 137° Southeast 169 194 5,300 1,452 Climbing Chicago Center
Tue 11:46:03 AM 42.2297 -85.4286 154° Southeast 168 193 6,800 1,415 Climbing Chicago Center
Tue 11:47:04 AM 42.1864 -85.4139 166° South 165 190 8,200 1,317 Climbing Chicago Center
Tue 11:48:06 AM 42.1422 -85.4003 167° South 162 186 9,500 1,258 Climbing Chicago Center
Tue 11:49:08 AM 42.0969 -85.3828 164° South 165 190 10,800 1,161 Climbing Chicago Center
Tue 11:50:10 AM 42.0514 -85.3608 160° South 169 194 11,900 1,113 Climbing Chicago Center
Tue 11:51:12 AM 42.0036 -85.3392 161° South 175 201 13,100 1,073 Climbing Chicago Center
Tue 11:52:13 AM 41.9439 -85.3164 164° South 182 209 14,100 976 Climbing Chicago Center
Tue 11:53:15 AM 41.8914 -85.2908 160° South 194 223 15,100 919 Climbing Chicago Center
Tue 11:54:17 AM 41.8383 -85.2697 163° South 197 227 16,000 774 Climbing Chicago Center
Tue 11:55:19 AM 41.7844 -85.2472 163° South 202 232 16,700 726 Climbing Chicago Center
Tue 11:56:21 AM 41.7286 -85.2269 165° South 207 238 17,500 532 Climbing Chicago Center
Tue 11:57:23 AM 41.6728 -85.2078 166° South 209 241 17,800 581 Climbing Chicago Center
Tue 11:58:25 AM 41.6078 -85.1786 161° South 206 237 18,700 726 Climbing Chicago Center
Tue 11:59:27 AM 41.5528 -85.1544 162° South 209 241 19,300 484 Climbing Chicago Center
Tue 12:00:29 PM 41.4969 -85.1275 160° South 214 246 19,700 387 Climbing Chicago Center
Tue 12:01:31 PM 41.4408 -85.0989 159° South 215 247 20,100 387 Climbing Chicago Center
Tue 12:02:33 PM 41.3825 -85.0764 164° South 218 251 20,500 387 Climbing Chicago Center
Tue 12:03:35 PM 41.3258 -85.0486 160° South 218 251 20,900 242 Climbing Chicago Center
Tue 12:04:37 PM 41.2567 -85.0169 161° South 219 252 21,000 48 Climbing Chicago Center
Tue 12:05:39 PM 41.1953 -84.9894 161° South 230 265 21,000 -48 Level Chicago Center
Tue 12:06:41 PM 41.1364 -84.9642 162° South 231 266 20,900  Descending Chicago Center
Tue 12:07:43 PM 41.0742 -84.9333 160° South 236 272 21,000 48 Climbing Chicago Center
Tue 12:08:45 PM 41.0119 -84.9061 162° South 236 272 21,000  Level Chicago Center
Tue 12:09:47 PM 40.9378 -84.8714 161° South 236 272 21,000  Level Chicago Center
Tue 12:10:49 PM 40.8739 -84.8414 160° South 242 278 21,000  Level Chicago Center
Tue 12:11:24 PM 40.8342 -84.8261 164° South 242 278 21,000  Level Indianapolis Center
Tue 12:12:25 PM 40.7808 -84.8044 163° South 234 269 21,000  Level Indianapolis Center
Tue 12:13:27 PM 40.7111 -84.7736 161° South 234 269 21,000  Level Indianapolis Center
Tue 12:14:29 PM 40.6469 -84.7464 162° South 240 276 21,000  Level Indianapolis Center
Tue 12:15:30 PM 40.5847 -84.7219 163° South 238 274 21,000  Level Indianapolis Center
Tue 12:16:32 PM 40.5225 -84.6964 163° South 236 272 21,000  Level Indianapolis Center
Tue 12:17:33 PM 40.4603 -84.6697 162° South 235 270 21,000  Level Indianapolis Center
Tue 12:18:35 PM 40.3892 -84.6433 164° South 237 273 21,000  Level Indianapolis Center
Tue 12:19:36 PM 40.3258 -84.6156 162° South 238 274 21,000  Level Indianapolis Center
Tue 12:20:38 PM 40.2586 -84.5856 161° South 238 274 21,000  Level Indianapolis Center
Tue 12:21:39 PM 40.1997 -84.5583 161° South 239 275 21,000  Level Indianapolis Center
Tue 12:22:41 PM 40.1278 -84.5222 159° South 236 272 21,000  Level Indianapolis Center
Tue 12:23:43 PM 40.0739 -84.4978 161° South 235 270 21,000  Level Indianapolis Center
Tue 12:24:45 PM 40.0025 -84.4669 162° South 238 274 21,000  Level Indianapolis Center
Tue 12:25:46 PM 39.9386 -84.4394 162° South 241 277 21,000  Level Indianapolis Center
Tue 12:26:47 PM 39.8756 -84.4119 161° South 238 274 21,000  Level Indianapolis Center
Tue 12:27:49 PM 39.8122 -84.3894 165° South 235 270 21,000  Level Indianapolis Center
Tue 12:28:50 PM 39.7506 -84.3614 161° South 234 269 21,000 49 Level Indianapolis Center
Tue 12:29:52 PM 39.6869 -84.3361 163° South 235 270 21,100  Climbing Indianapolis Center
Tue 12:30:53 PM 39.6242 -84.3067 160° South 235 270 21,000 -49 Descending Indianapolis Center
Tue 12:31:55 PM 39.5517 -84.2775 163° South 235 270 21,000  Level Indianapolis Center
Tue 12:32:57 PM 39.4875 -84.2519 163° South 238 274 21,000  Level Indianapolis Center
Tue 12:33:58 PM 39.4250 -84.2281 164° South 235 270 21,000  Level Indianapolis Center
Tue 12:35:00 PM 39.3625 -84.2019 162° South 234 269 21,000  Level Indianapolis Center
Tue 12:36:01 PM 39.2986 -84.1789 164° South 235 270 21,000  Level Indianapolis Center
Tue 12:37:03 PM 39.2364 -84.1553 164° South 233 268 21,000  Level Indianapolis Center
Tue 12:38:04 PM 39.1750 -84.1294 162° South 231 266 21,000  Level Indianapolis Center
Tue 12:39:06 PM 39.1125 -84.1044 163° South 233 268 21,000  Level Indianapolis Center
Tue 12:40:07 PM 39.0506 -84.0778 162° South 233 268 21,000 49 Level Indianapolis Center
Tue 12:41:09 PM 38.9897 -84.0558 164° South 227 261 21,100  Climbing Indianapolis Center
Tue 12:42:11 PM 38.9169 -84.0267 163° South 230 265 21,000 -49 Descending Indianapolis Center
Tue 12:43:12 PM 38.8561 -84.0022 163° South 228 262 21,000  Level Indianapolis Center
Tue 12:44:14 PM 38.7953 -83.9739 160° South 230 265 21,000 48 Level Indianapolis Center
Tue 12:45:16 PM 38.7333 -83.9456 160° South 230 265 21,100 49 Climbing Indianapolis Center
Tue 12:46:17 PM 38.6719 -83.9156 159° South 232 267 21,100  Level Indianapolis Center
Tue 12:47:19 PM 38.6044 -83.8803 158° South 234 269 21,100 -48 Level Indianapolis Center
Tue 12:48:21 PM 38.5422 -83.8503 159° South 237 273 21,000 -48 Descending Indianapolis Center
Tue 12:49:23 PM 38.4797 -83.8236 162° South 237 273 21,000  Level Indianapolis Center
Tue 12:50:24 PM 38.4167 -83.7956 161° South 238 274 21,000  Level Indianapolis Center
Tue 12:51:26 PM 38.3539 -83.7675 161° South 237 273 21,000  Level Indianapolis Center
Tue 12:52:28 PM 38.2914 -83.7392 160° South 238 274 21,000  Level Indianapolis Center
Tue 12:53:30 PM 38.2175 -83.7075 161° South 240 276 21,000 49 Level Indianapolis Center
Tue 12:54:31 PM 38.1547 -83.6794 161° South 239 275 21,100 49 Climbing Indianapolis Center
Tue 12:55:33 PM 38.0928 -83.6514 160° South 237 273 21,100 -48 Level Indianapolis Center
Tue 12:56:35 PM 38.0300 -83.6228 160° South 238 274 21,000 -49 Descending Indianapolis Center
Tue 12:57:36 PM 37.9672 -83.5969 162° South 238 274 21,000 -49 Level Indianapolis Center
Tue 12:58:38 PM 37.9039 -83.5678 160° South 240 276 20,900  Descending Indianapolis Center
Tue 12:59:40 PM 37.8425 -83.5403 161° South 236 272 21,000 48 Climbing Indianapolis Center
Tue 01:00:42 PM 37.7692 -83.5103 162° South 237 273 21,000  Level Indianapolis Center
Tue 01:01:43 PM 37.7067 -83.4819 160° South 237 273 21,000  Level Indianapolis Center
Tue 01:02:45 PM 37.6436 -83.4553 161° South 238 274 21,000  Level Indianapolis Center
Tue 01:03:48 PM 37.5808 -83.4292 162° South 237 273 21,000  Level Indianapolis Center
Tue 01:04:50 PM 37.5167 -83.4044 163° South 239 275 21,000  Level Indianapolis Center
Tue 01:05:52 PM 37.4433 -83.3756 163° South 238 274 21,000  Level Indianapolis Center
Tue 01:06:53 PM 37.3803 -83.3497 162° South 238 274 21,000  Level Indianapolis Center
Tue 01:07:56 PM 37.3169 -83.3219 161° South 239 275 21,000  Level Indianapolis Center
Tue 01:08:58 PM 37.2542 -83.2939 160° South 240 276 21,000  Level Indianapolis Center
Tue 01:09:59 PM 37.1900 -83.2675 162° South 241 277 21,000  Level Indianapolis Center
Tue 01:11:01 PM 37.1253 -83.2433 163° South 242 278 21,000 48 Level Indianapolis Center
Tue 01:12:03 PM 37.0511 -83.2142 163° South 240 276 21,100  Climbing Indianapolis Center
Tue 01:13:05 PM 36.9872 -83.1886 162° South 241 277 21,000 -48 Descending Indianapolis Center
Tue 01:14:07 PM 36.9233 -83.1622 162° South 242 278 21,000  Level Indianapolis Center
Tue 01:15:09 PM 36.8594 -83.1369 162° South 243 280 21,000  Level Indianapolis Center
Tue 01:16:11 PM 36.7961 -83.1103 161° South 241 277 21,000  Level Indianapolis Center
Tue 01:17:13 PM 36.7203 -83.0828 164° South 243 280 21,000 -48 Level Indianapolis Center
Tue 01:18:15 PM 36.6569 -83.0581 163° South 240 276 20,900  Descending Indianapolis Center
Tue 01:19:17 PM 36.5931 -83.0339 163° South 240 276 21,000 49 Climbing Indianapolis Center
Tue 01:20:18 PM 36.5300 -83.0092 163° South 238 274 21,000  Level Indianapolis Center
Tue 01:21:21 PM 36.4667 -82.9850 163° South 238 274 21,000  Level Indianapolis Center
Tue 01:22:22 PM 36.3928 -82.9567 163° South 238 274 21,000  Level Indianapolis Center
Tue 01:22:54 PM 36.3578 -82.9456 166° South 239 275 21,000  Level Atlanta Center
Tue 01:23:54 PM 36.2931 -82.9208 163° South 239 275 21,000  Level Atlanta Center
Tue 01:24:54 PM 36.2303 -82.8983 164° South 239 275 21,000  Level Atlanta Center
Tue 01:25:54 PM 36.1675 -82.8736 162° South 239 275 21,000  Level Atlanta Center
Tue 01:26:54 PM 36.1047 -82.8489 162° South 239 275 21,000 -500 Level Atlanta Center
Tue 01:27:54 PM 36.0356 -82.8319 169° South 245 282 20,000 -1,100 Descending Atlanta Center
Tue 01:28:54 PM 35.9606 -82.8253 176° South 261 300 18,800 -950 Descending Atlanta Center
Tue 01:29:54 PM 35.8811 -82.8164 175° South 279 321 18,100 -900 Descending Atlanta Center
Tue 01:30:54 PM 35.8078 -82.7917 165° South 279 321 17,000 -1,250 Descending Atlanta Center
Tue 01:31:54 PM 35.7367 -82.7569 158° South 272 313 15,600 -1,400 Descending Atlanta Center
Tue 01:32:54 PM 35.6653 -82.7250 160° South 278 320 14,200 -1,350 Descending Atlanta Center
Tue 01:33:54 PM 35.5939 -82.6878 157° South 278 320 12,900 -1,300 Descending Atlanta Center
Tue 01:34:54 PM 35.5247 -82.6583 161° South 273 314 11,600 -1,250 Descending Atlanta Center
Tue 01:35:54 PM 35.4575 -82.6186 154° Southeast 273 314 10,400 -1,350 Descending Atlanta Center
Tue 01:36:54 PM 35.3906 -82.5942 163° South 267 307 8,900 -1,500 Descending Atlanta Center
Tue 01:37:54 PM 35.3253 -82.5547 154° Southeast 260 299 7,400 -893 Descending Atlanta Center
Tue 01:38:55 PM 35.2583 -82.5228 159° South 253 291 7,100 -295 Descending Atlanta Center
Tue 01:40:00 PM 35.1959 -82.4833 180° South  Level FlightAware Approximate
Tue 01:47:00 PM 34.8479 -82.3500 180° South  Level Estimated
Tue 01:48:00 PM 34.8479 -82.3500 180° South  Level Estimated
Tue 01:49:00 PM 34.8479 -82.3500 180° South  Level Estimated
Tue 01:50:00 PM 34.8479 -82.3500 180° South  Level Estimated
Tue 01:51:00 PM 34.8479 -82.3500 180° South  Level Estimated
Tue 01:52:00 PM 34.8479 -82.3500 180° South  Level Estimated
Tue 01:53:00 PM 34.8479 -82.3500 180° South  Level Estimated

Login

Don't have an account? Register now (free) for customized features, flight alerts, and more!